Time;durP1;ratioP1;P1;durP2;ratioP2;P2;SDS_P1;SDS_P2;PMS_P1;PMS_P2;Temp;Humidity;BMP_temperature;BMP_pressure;BME280_temperature;BME280_humidity;BME280_pressure;Samples;Min_cycle;Max_cycle;Signal;HPM_P1;HPM_P2
2022/04/14 00:00:18;;;;;;;8.17;5.23;;;17.30;84.50;;;;;;5011692;28;20507;-67
2022/04/14 00:02:46;;;;;;;7.43;4.83;;;17.20;84.40;;;;;;5012005;28;20943;-66
2022/04/14 00:05:14;;;;;;;6.23;5.60;;;17.20;84.50;;;;;;5033856;28;20506;-67
2022/04/14 00:07:44;;;;;;;6.83;4.60;;;17.20;84.50;;;;;;5051525;28;20848;-66
2022/04/14 00:10:13;;;;;;;6.60;5.07;;;17.20;84.50;;;;;;5022882;28;20528;-67
2022/04/14 00:12:42;;;;;;;6.50;5.23;;;17.20;84.50;;;;;;5051620;28;20434;-67
2022/04/14 00:15:11;;;;;;;4.77;4.30;;;17.20;84.40;;;;;;5049192;28;20459;-67
2022/04/14 00:17:40;;;;;;;6.97;6.00;;;17.20;84.40;;;;;;5051525;28;20438;-67
2022/04/14 00:20:10;;;;;;;7.30;5.20;;;17.30;85.80;;;;;;5032140;28;20472;-67
2022/04/14 00:22:38;;;;;;;7.90;6.33;;;17.20;84.70;;;;;;5031453;28;20486;-65
2022/04/14 00:25:07;;;;;;;6.67;5.53;;;17.20;84.70;;;;;;5015860;28;20484;-67
2022/04/14 00:27:35;;;;;;;8.17;6.63;;;17.20;84.80;;;;;;5031575;28;20424;-68
2022/04/14 00:30:04;;;;;;;7.33;6.60;;;17.20;84.80;;;;;;5032855;28;20464;-66
2022/04/14 00:32:32;;;;;;;8.63;6.00;;;17.20;84.90;;;;;;5025704;28;20444;-68
2022/04/14 00:35:02;;;;;;;6.47;5.57;;;17.20;85.00;;;;;;5043959;28;20450;-67
2022/04/14 00:37:30;;;;;;;5.50;5.00;;;17.20;84.90;;;;;;5055350;28;20836;-67
2022/04/14 00:39:58;;;;;;;6.80;6.10;;;17.20;84.70;;;;;;5052964;28;20870;-67
2022/04/14 00:42:26;;;;;;;8.07;6.93;;;17.20;85.20;;;;;;5035228;28;20930;-67
2022/04/14 00:44:54;;;;;;;7.83;6.23;;;17.20;84.90;;;;;;5046790;28;20467;-66
2022/04/14 00:47:22;;;;;;;7.57;6.80;;;17.20;85.20;;;;;;5028213;28;21040;-67
2022/04/14 00:49:50;;;;;;;7.93;5.70;;;17.20;85.00;;;;;;5041220;28;20465;-68
2022/04/14 00:52:23;;;;;;;5.40;4.67;;;17.20;84.90;;;;;;5054852;28;20408;-67
2022/04/14 00:54:51;;;;;;;7.40;6.20;;;17.20;84.80;;;;;;5038918;28;20993;-67
2022/04/14 00:57:19;;;;;;;8.33;7.00;;;17.20;84.80;;;;;;5053273;28;20440;-66
2022/04/14 00:59:47;;;;;;;7.33;6.33;;;17.20;84.90;;;;;;5052450;28;20462;-67
2022/04/14 01:02:15;;;;;;;7.53;6.37;;;17.20;85.00;;;;;;5031707;28;20444;-67
2022/04/14 01:04:45;;;;;;;8.97;7.23;;;17.20;85.10;;;;;;5030132;28;20464;-67
2022/04/14 01:07:13;;;;;;;8.77;7.50;;;17.20;84.90;;;;;;5034856;28;20476;-67
2022/04/14 01:09:44;;;;;;;7.43;6.37;;;17.20;85.00;;;;;;5021675;28;20982;-66
2022/04/14 01:12:15;;;;;;;7.80;6.50;;;17.20;85.00;;;;;;5047738;28;20430;-67
2022/04/14 01:14:43;;;;;;;9.80;8.77;;;17.20;85.20;;;;;;5038495;28;20456;-67
2022/04/14 01:17:12;;;;;;;7.63;6.60;;;17.20;85.10;;;;;;5033608;28;20510;-67
2022/04/14 01:19:40;;;;;;;9.07;6.80;;;17.10;85.00;;;;;;5044677;28;20887;-67
2022/04/14 01:22:12;;;;;;;7.57;6.77;;;17.10;85.10;;;;;;5053107;28;20435;-67
2022/04/14 01:24:42;;;;;;;8.80;7.00;;;17.10;85.20;;;;;;5025891;28;20975;-68
2022/04/14 01:27:11;;;;;;;9.50;7.03;;;17.10;85.30;;;;;;5031958;28;20510;-68
2022/04/14 01:29:39;;;;;;;9.00;6.87;;;17.20;85.30;;;;;;5046791;28;20467;-67
2022/04/14 01:32:08;;;;;;;9.73;7.67;;;17.10;85.30;;;;;;5046725;28;20928;-67
2022/04/14 01:34:38;;;;;;;7.30;6.47;;;17.10;85.20;;;;;;5040817;28;20482;-67
2022/04/14 01:37:07;;;;;;;8.53;7.00;;;17.10;85.30;;;;;;5054105;28;20416;-66
2022/04/14 01:39:35;;;;;;;9.80;7.83;;;17.10;85.30;;;;;;5028457;28;20886;-67
2022/04/14 01:42:06;;;;;;;9.80;8.13;;;17.10;85.20;;;;;;5043043;28;20438;-67
2022/04/14 01:44:34;;;;;;;12.00;9.37;;;17.10;85.20;;;;;;5049822;28;20525;-66
2022/04/14 01:47:03;;;;;;;10.40;8.40;;;17.10;85.30;;;;;;5046336;28;20456;-67
2022/04/14 01:49:31;;;;;;;11.07;8.20;;;17.10;85.20;;;;;;5034302;28;20452;-68
2022/04/14 01:51:59;;;;;;;10.40;9.20;;;17.10;85.20;;;;;;5032788;28;20428;-68
2022/04/14 01:54:27;;;;;;;8.60;7.23;;;17.10;85.20;;;;;;5023711;28;20469;-68
2022/04/14 01:56:55;;;;;;;11.40;9.03;;;17.10;85.10;;;;;;5039110;28;20983;-67
2022/04/14 01:59:25;;;;;;;12.13;8.90;;;17.10;85.10;;;;;;5052090;28;20419;-66
2022/04/14 02:01:53;;;;;;;10.70;8.60;;;17.10;85.20;;;;;;5051600;28;20435;-67
2022/04/14 02:04:21;;;;;;;8.27;7.10;;;17.10;85.10;;;;;;5027791;28;21002;-68
2022/04/14 02:06:49;;;;;;;9.97;7.60;;;17.10;85.20;;;;;;5034571;28;20509;-67
2022/04/14 02:09:17;;;;;;;10.20;8.83;;;17.10;85.30;;;;;;5033475;28;20448;-67
2022/04/14 02:11:45;;;;;;;7.27;6.47;;;17.10;85.40;;;;;;5035336;28;20443;-67
2022/04/14 02:14:13;;;;;;;9.07;8.07;;;17.10;85.40;;;;;;5041472;28;20487;-66
2022/04/14 02:16:42;;;;;;;10.80;9.30;;;17.10;85.30;;;;;;5042710;28;20782;-67
2022/04/14 02:19:11;;;;;;;8.93;8.03;;;17.10;85.70;;;;;;5013235;28;20433;-68
2022/04/14 02:21:39;;;;;;;9.47;8.00;;;17.10;85.60;;;;;;5031049;28;20439;-67
2022/04/14 02:24:07;;;;;;;10.90;8.90;;;17.10;86.00;;;;;;5034950;28;20503;-66
2022/04/14 02:26:35;;;;;;;10.13;7.90;;;17.10;86.20;;;;;;5037767;28;20483;-66
2022/04/14 02:29:03;;;;;;;14.00;8.30;;;17.10;87.30;;;;;;5013776;28;20410;-68
2022/04/14 02:31:31;;;;;;;14.73;7.40;;;17.00;85.80;;;;;;5039450;28;20458;-67
2022/04/14 02:34:01;;;;;;;10.27;9.13;;;17.00;85.70;;;;;;5050771;28;20537;-67
2022/04/14 02:36:29;;;;;;;7.90;7.10;;;17.00;85.40;;;;;;5038994;28;20521;-66
2022/04/14 02:38:57;;;;;;;9.43;7.77;;;17.00;85.30;;;;;;5032158;28;20509;-67
2022/04/14 02:41:25;;;;;;;9.00;7.07;;;17.00;85.30;;;;;;5032462;28;20464;-68
2022/04/14 02:43:53;;;;;;;10.40;8.17;;;17.10;85.40;;;;;;5041586;28;20856;-67
2022/04/14 02:46:21;;;;;;;7.13;6.50;;;17.00;85.50;;;;;;5050383;28;20558;-67
2022/04/14 02:48:49;;;;;;;9.40;8.03;;;17.10;85.50;;;;;;5035462;28;21022;-67
2022/04/14 02:51:19;;;;;;;6.97;6.37;;;17.00;85.40;;;;;;5034103;28;20474;-65
2022/04/14 02:53:47;;;;;;;8.23;7.10;;;17.00;85.50;;;;;;5038665;28;20840;-66
2022/04/14 02:56:15;;;;;;;8.13;7.07;;;17.00;85.30;;;;;;5012341;28;20492;-68
2022/04/14 02:58:43;;;;;;;8.13;6.97;;;17.00;85.60;;;;;;5028959;28;20457;-67
2022/04/14 03:01:11;;;;;;;8.57;7.00;;;17.10;85.60;;;;;;5052056;28;20510;-67
2022/04/14 03:03:40;;;;;;;6.73;6.13;;;17.00;85.50;;;;;;5038645;28;20460;-67
2022/04/14 03:06:08;;;;;;;8.97;6.20;;;17.00;85.60;;;;;;5030758;28;20472;-66
2022/04/14 03:08:38;;;;;;;6.57;5.97;;;17.00;85.60;;;;;;5027828;28;20473;-66
2022/04/14 03:11:06;;;;;;;7.97;7.10;;;17.00;85.50;;;;;;5024747;28;20976;-67
2022/04/14 03:13:34;;;;;;;6.40;5.80;;;17.00;85.60;;;;;;5051572;28;20461;-68
2022/04/14 03:16:02;;;;;;;7.40;6.53;;;17.00;85.60;;;;;;5050256;28;20533;-67
2022/04/14 03:18:30;;;;;;;6.30;5.67;;;17.00;85.70;;;;;;5032955;28;20445;-67
2022/04/14 03:20:58;;;;;;;7.90;6.10;;;17.00;85.70;;;;;;5032114;28;20472;-67
2022/04/14 03:23:26;;;;;;;6.00;5.50;;;17.00;85.70;;;;;;5044245;28;20519;-67
2022/04/14 03:25:56;;;;;;;5.87;5.27;;;17.00;85.70;;;;;;5018136;28;20525;-67
2022/04/14 03:28:24;;;;;;;6.67;5.40;;;16.90;85.60;;;;;;5049078;28;20470;-67
2022/04/14 03:30:57;;;;;;;6.80;5.37;;;17.00;85.70;;;;;;5034782;28;20495;-67
2022/04/14 03:33:25;;;;;;;6.10;5.10;;;16.90;85.60;;;;;;5041822;28;20469;-66
2022/04/14 03:35:53;;;;;;;6.00;5.50;;;16.90;85.60;;;;;;5050592;28;20518;-67
2022/04/14 03:38:21;;;;;;;6.20;5.60;;;16.90;85.50;;;;;;5047068;28;20458;-67
2022/04/14 03:41:05;;;;;;;6.37;5.47;;;16.90;85.60;;;;;;5011856;28;20465;-65
2022/04/14 03:43:34;;;;;;;5.40;4.90;;;16.90;85.60;;;;;;5016583;28;20509;-67
2022/04/14 03:46:03;;;;;;;5.93;5.33;;;16.90;86.80;;;;;;5050005;28;20466;-67
2022/04/14 03:48:31;;;;;;;5.70;5.20;;;17.00;85.60;;;;;;5029306;28;20467;-67
2022/04/14 03:50:59;;;;;;;4.70;4.30;;;16.90;85.50;;;;;;5044227;28;20475;-66
2022/04/14 03:53:28;;;;;;;6.30;4.87;;;17.00;85.70;;;;;;5033126;28;20473;-67
2022/04/14 03:55:56;;;;;;;8.53;5.67;;;16.90;85.60;;;;;;5051188;28;20467;-67
2022/04/14 03:58:25;;;;;;;4.80;4.40;;;17.00;85.70;;;;;;5049273;28;20497;-68
2022/04/14 04:00:53;;;;;;;5.27;4.77;;;16.90;85.70;;;;;;5031366;28;20464;-65
2022/04/14 04:03:22;;;;;;;6.03;5.43;;;16.90;86.30;;;;;;5057545;28;20503;-66
2022/04/14 04:05:51;;;;;;;4.03;3.70;;;16.90;86.00;;;;;;5034118;28;20597;-66
2022/04/14 04:08:19;;;;;;;5.00;3.90;;;16.90;85.90;;;;;;5035629;28;20487;-66
2022/04/14 04:10:47;;;;;;;5.43;4.60;;;16.90;85.70;;;;;;5035311;28;20472;-67
2022/04/14 04:13:16;;;;;;;4.80;4.07;;;16.90;85.80;;;;;;5035683;28;20482;-66
2022/04/14 04:15:45;;;;;;;3.93;3.63;;;16.90;85.80;;;;;;5053234;28;20512;-67
2022/04/14 04:18:14;;;;;;;4.73;4.23;;;16.90;85.70;;;;;;5041035;28;20877;-67
2022/04/14 04:20:42;;;;;;;5.50;4.60;;;16.90;85.80;;;;;;5052084;28;20875;-67
2022/04/14 04:23:10;;;;;;;4.50;4.10;;;16.90;85.80;;;;;;5034619;28;20938;-66
2022/04/14 04:25:38;;;;;;;5.20;4.70;;;16.90;85.90;;;;;;5054343;28;20502;-67
2022/04/14 04:28:06;;;;;;;5.47;4.40;;;16.90;86.30;;;;;;5055220;28;20459;-67
2022/04/14 04:30:34;;;;;;;4.73;3.93;;;16.90;86.60;;;;;;5033996;28;20463;-66
2022/04/14 04:33:05;;;;;;;4.33;3.43;;;16.80;86.20;;;;;;5029121;28;20818;-67
2022/04/14 04:35:34;;;;;;;4.93;4.53;;;16.90;86.30;;;;;;5052346;28;20454;-67
2022/04/14 04:38:02;;;;;;;4.27;3.77;;;16.80;86.10;;;;;;5054479;28;20497;-67
2022/04/14 04:40:30;;;;;;;4.90;4.40;;;16.80;85.80;;;;;;5033678;28;20981;-67
2022/04/14 04:42:58;;;;;;;5.50;4.77;;;16.90;86.40;;;;;;5033767;28;20439;-66
2022/04/14 04:45:26;;;;;;;5.43;4.93;;;16.80;86.30;;;;;;5036107;28;20575;-66
2022/04/14 04:47:55;;;;;;;5.00;3.97;;;16.80;86.10;;;;;;5032144;28;20460;-67
2022/04/14 04:50:24;;;;;;;5.40;4.60;;;16.80;86.10;;;;;;5049162;28;20467;-66
2022/04/14 04:52:52;;;;;;;4.80;4.30;;;16.90;86.10;;;;;;5015146;28;20437;-67
2022/04/14 04:55:20;;;;;;;4.80;4.30;;;16.80;85.90;;;;;;5047084;28;20462;-67
2022/04/14 04:57:48;;;;;;;5.03;4.33;;;16.80;85.90;;;;;;5054754;28;20439;-67
2022/04/14 05:00:16;;;;;;;3.90;3.60;;;16.80;86.10;;;;;;5053824;28;20876;-67
2022/04/14 05:02:45;;;;;;;4.70;4.13;;;16.80;86.00;;;;;;5045637;28;20931;-67
2022/04/14 05:05:13;;;;;;;3.73;3.40;;;16.80;85.90;;;;;;5031498;28;20463;-67
2022/04/14 05:07:42;;;;;;;5.07;4.00;;;16.80;86.00;;;;;;5054070;28;20806;-66
2022/04/14 05:10:10;;;;;;;5.00;4.50;;;16.80;86.50;;;;;;5052137;28;21008;-68
2022/04/14 05:12:38;;;;;;;4.10;3.70;;;16.80;86.80;;;;;;5054480;28;20917;-67
2022/04/14 05:15:07;;;;;;;4.50;3.87;;;16.80;86.40;;;;;;5053480;28;20463;-67
2022/04/14 05:17:35;;;;;;;4.50;4.07;;;16.80;86.30;;;;;;5037525;28;20446;-67
2022/04/14 05:20:04;;;;;;;4.70;4.20;;;16.80;86.20;;;;;;5031933;28;20480;-67
2022/04/14 05:22:32;;;;;;;4.90;4.20;;;16.80;86.20;;;;;;5039569;28;20435;-66
2022/04/14 05:25:02;;;;;;;3.63;3.33;;;16.80;86.20;;;;;;5035914;28;20471;-67
2022/04/14 05:27:30;;;;;;;6.87;5.30;;;16.80;86.20;;;;;;5036212;28;20910;-67
2022/04/14 05:29:58;;;;;;;5.47;4.70;;;16.80;86.70;;;;;;5031892;28;20505;-67
2022/04/14 05:32:26;;;;;;;3.73;3.43;;;16.70;86.80;;;;;;5022928;28;20428;-67
2022/04/14 05:35:00;;;;;;;4.00;3.60;;;16.70;86.40;;;;;;5047919;28;20501;-66
2022/04/14 05:37:28;;;;;;;4.57;4.10;;;16.80;86.40;;;;;;5044920;28;20758;-66
2022/04/14 05:39:56;;;;;;;4.00;3.60;;;16.70;86.30;;;;;;5051208;28;20944;-67
2022/04/14 05:42:26;;;;;;;4.27;3.83;;;16.80;86.50;;;;;;5050800;28;20431;-67
2022/04/14 05:44:54;;;;;;;3.70;3.40;;;16.70;86.80;;;;;;5051606;28;20476;-67
2022/04/14 05:47:24;;;;;;;5.13;4.17;;;16.70;86.70;;;;;;5043979;28;20784;-66
2022/04/14 05:49:53;;;;;;;5.10;4.70;;;16.80;86.60;;;;;;5014515;28;20465;-67
2022/04/14 05:52:21;;;;;;;5.20;4.70;;;16.70;86.50;;;;;;5047510;28;20964;-65
2022/04/14 05:54:50;;;;;;;5.17;4.67;;;16.80;86.60;;;;;;5044251;28;20632;-67
2022/04/14 05:57:22;;;;;;;5.57;4.77;;;16.80;86.60;;;;;;5039178;28;20461;-66
2022/04/14 05:59:51;;;;;;;5.17;4.53;;;16.70;86.40;;;;;;5031070;28;20474;-66
2022/04/14 06:02:19;;;;;;;5.73;4.83;;;16.70;86.50;;;;;;5041146;28;20435;-67
2022/04/14 06:04:47;;;;;;;4.20;3.83;;;16.70;86.50;;;;;;5022524;28;20570;-65
2022/04/14 06:07:16;;;;;;;5.00;4.50;;;16.70;86.40;;;;;;5046551;28;20466;-67
2022/04/14 06:09:44;;;;;;;5.30;4.80;;;16.70;86.40;;;;;;5062218;28;20464;-65
2022/04/14 06:12:12;;;;;;;7.17;4.63;;;16.70;86.50;;;;;;5047700;28;20432;-65
2022/04/14 06:14:51;;;;;;;5.20;4.70;;;16.70;86.50;;;;;;5028677;28;20475;-67
2022/04/14 06:17:19;;;;;;;4.73;4.33;;;16.70;86.50;;;;;;5047980;28;20488;-66
2022/04/14 06:19:48;;;;;;;5.80;5.30;;;16.70;86.40;;;;;;5036340;28;21067;-67
2022/04/14 06:22:16;;;;;;;5.40;4.90;;;16.70;86.70;;;;;;5037592;28;20431;-66
2022/04/14 06:24:44;;;;;;;6.00;5.40;;;16.70;86.90;;;;;;5036464;28;20467;-68
2022/04/14 06:27:12;;;;;;;6.83;5.60;;;16.70;86.80;;;;;;5041651;28;20518;-67
2022/04/14 06:29:40;;;;;;;9.00;6.30;;;16.70;86.80;;;;;;5039861;28;20471;-67
2022/04/14 06:32:10;;;;;;;6.33;5.60;;;16.60;86.80;;;;;;5037974;28;20432;-66
2022/04/14 06:34:43;;;;;;;6.27;5.67;;;16.70;87.20;;;;;;5014642;28;20464;-67
2022/04/14 06:37:11;;;;;;;6.50;5.67;;;16.70;87.20;;;;;;5037857;28;20431;-66
2022/04/14 06:39:39;;;;;;;7.87;6.20;;;16.70;87.10;;;;;;5036715;28;20476;-66
2022/04/14 06:42:08;;;;;;;6.40;5.50;;;16.70;87.10;;;;;;5045715;28;20435;-67
2022/04/14 06:44:37;;;;;;;5.43;4.50;;;16.70;87.10;;;;;;5040940;28;20534;-66
2022/04/14 06:47:06;;;;;;;6.43;5.77;;;16.60;87.00;;;;;;5029954;28;20436;-67
2022/04/14 06:49:36;;;;;;;6.60;5.33;;;16.60;87.00;;;;;;5028320;28;20463;-67
2022/04/14 06:52:04;;;;;;;5.77;5.17;;;16.60;87.40;;;;;;5019966;28;20444;-67
2022/04/14 06:54:32;;;;;;;6.17;5.67;;;16.60;88.40;;;;;;5029359;28;20487;-67
2022/04/14 06:57:00;;;;;;;6.27;5.17;;;16.60;87.30;;;;;;5038920;28;20432;-67
2022/04/14 06:59:28;;;;;;;7.23;6.50;;;16.60;87.30;;;;;;5043105;28;20460;-66
2022/04/14 07:01:57;;;;;;;6.80;5.93;;;16.70;87.70;;;;;;5036876;28;20460;-68
2022/04/14 07:04:25;;;;;;;7.13;5.90;;;16.60;87.50;;;;;;5045289;28;20746;-68
2022/04/14 07:06:54;;;;;;;5.83;5.10;;;16.60;87.40;;;;;;5040626;28;20450;-66
2022/04/14 07:09:24;;;;;;;5.00;4.40;;;16.60;87.70;;;;;;5039177;28;20463;-67
2022/04/14 07:11:53;;;;;;;6.13;5.53;;;16.60;87.40;;;;;;5050596;28;20493;-67
2022/04/14 07:14:21;;;;;;;10.20;8.10;;;16.70;87.80;;;;;;5036499;28;20456;-66
2022/04/14 07:16:49;;;;;;;10.67;6.90;;;16.60;88.80;;;;;;5045256;28;20435;-67
2022/04/14 07:19:18;;;;;;;6.00;5.37;;;16.70;89.80;;;;;;5030802;28;20437;-67
2022/04/14 07:21:46;;;;;;;10.73;5.33;;;16.70;88.80;;;;;;5046501;28;20793;-65
2022/04/14 07:24:15;;;;;;;10.53;6.03;;;16.70;88.20;;;;;;5031280;28;20513;-65
2022/04/14 07:26:44;;;;;;;10.43;6.83;;;16.70;88.20;;;;;;5041417;28;20423;-66
2022/04/14 07:29:13;;;;;;;8.80;6.13;;;16.60;87.90;;;;;;5033810;28;21012;-66
2022/04/14 07:31:42;;;;;;;6.50;5.50;;;16.60;87.70;;;;;;5028009;28;20424;-66
2022/04/14 07:34:10;;;;;;;5.90;5.30;;;16.60;87.80;;;;;;5034188;28;20475;-66
2022/04/14 07:36:39;;;;;;;7.43;5.33;;;16.70;87.80;;;;;;5035050;28;20900;-65
2022/04/14 07:39:09;;;;;;;8.30;5.27;;;16.70;87.70;;;;;;5031419;28;20444;-67
2022/04/14 07:41:38;;;;;;;5.33;4.90;;;16.70;87.60;;;;;;5035355;28;20448;-66
2022/04/14 07:44:06;;;;;;;5.40;4.90;;;16.70;87.40;;;;;;5037415;28;20972;-66
2022/04/14 07:46:37;;;;;;;4.53;4.13;;;16.70;87.30;;;;;;5039412;28;21135;-66
2022/04/14 07:49:05;;;;;;;3.93;3.53;;;16.70;87.30;;;;;;5031752;28;20506;-66
2022/04/14 07:51:33;;;;;;;6.67;5.20;;;16.70;87.10;;;;;;5030197;28;20506;-65
2022/04/14 07:54:01;;;;;;;5.57;5.07;;;16.80;87.20;;;;;;5023651;28;20530;-66
2022/04/14 07:56:29;;;;;;;9.07;5.10;;;16.70;87.20;;;;;;5011588;28;20550;-67
2022/04/14 07:58:59;;;;;;;4.77;3.90;;;16.80;87.30;;;;;;5012196;28;20854;-66
2022/04/14 08:01:28;;;;;;;4.10;3.70;;;16.70;87.00;;;;;;5011602;28;20460;-66
2022/04/14 08:03:57;;;;;;;6.60;3.83;;;16.80;87.00;;;;;;5011879;28;20560;-65
2022/04/14 08:06:27;;;;;;;3.90;3.60;;;16.70;86.80;;;;;;5010203;28;20515;-67
2022/04/14 08:08:56;;;;;;;4.30;3.60;;;16.70;86.80;;;;;;5011692;28;20970;-67
2022/04/14 08:11:24;;;;;;;3.80;3.50;;;16.70;86.70;;;;;;5011296;28;20478;-65
2022/04/14 08:13:52;;;;;;;3.73;3.30;;;16.80;86.80;;;;;;5011980;28;20449;-66
2022/04/14 08:16:21;;;;;;;3.80;3.50;;;16.80;86.80;;;;;;5011384;28;20835;-66
2022/04/14 08:18:49;;;;;;;3.13;2.83;;;16.80;86.70;;;;;;5019567;28;20502;-67
2022/04/14 08:21:19;;;;;;;3.10;2.80;;;16.80;86.60;;;;;;5030666;28;20510;-69
2022/04/14 08:23:47;;;;;;;3.50;3.20;;;16.80;86.60;;;;;;5025471;28;20457;-66
2022/04/14 08:26:16;;;;;;;4.17;3.10;;;16.80;86.50;;;;;;5011364;28;20464;-66
2022/04/14 08:28:46;;;;;;;3.33;2.80;;;16.80;86.40;;;;;;5011862;28;20428;-66
2022/04/14 08:31:15;;;;;;;2.80;2.60;;;16.80;86.30;;;;;;5011287;28;20469;-68
2022/04/14 08:33:45;;;;;;;4.40;2.57;;;16.80;86.30;;;;;;5011649;28;20884;-66
2022/04/14 08:36:15;;;;;;;4.63;3.17;;;16.80;86.20;;;;;;5020776;28;20510;-65
2022/04/14 08:38:45;;;;;;;3.10;2.90;;;16.90;86.20;;;;;;5026223;28;20552;-66
2022/04/14 08:41:17;;;;;;;3.17;2.97;;;16.80;86.10;;;;;;5011245;28;20505;-66
2022/04/14 08:43:49;;;;;;;3.37;3.07;;;16.80;86.00;;;;;;5011670;28;20475;-66
2022/04/14 08:46:20;;;;;;;2.93;2.73;;;16.90;86.00;;;;;;5011882;28;20476;-67
2022/04/14 08:48:51;;;;;;;2.80;2.43;;;16.90;86.10;;;;;;5030982;28;20431;-67
2022/04/14 08:51:21;;;;;;;2.70;2.50;;;16.90;86.10;;;;;;5032285;28;20483;-66
2022/04/14 08:53:50;;;;;;;3.10;2.90;;;16.80;85.90;;;;;;5033731;28;20514;-67
2022/04/14 08:56:23;;;;;;;3.23;2.93;;;16.90;86.00;;;;;;5034521;28;20974;-66
2022/04/14 08:58:54;;;;;;;3.60;3.30;;;16.90;86.00;;;;;;5033796;28;20427;-65
2022/04/14 09:01:24;;;;;;;3.07;2.87;;;16.80;85.90;;;;;;5030382;28;20465;-66
2022/04/14 09:03:56;;;;;;;3.80;2.87;;;16.90;85.90;;;;;;5015064;28;20444;-66
2022/04/14 09:06:27;;;;;;;4.47;3.73;;;16.90;86.00;;;;;;5014465;28;20534;-67
2022/04/14 09:08:58;;;;;;;4.43;4.03;;;16.90;85.90;;;;;;5014812;28;20443;-66
2022/04/14 09:11:26;;;;;;;5.60;3.90;;;16.90;85.80;;;;;;5014330;28;20476;-65
2022/04/14 09:13:55;;;;;;;4.47;4.03;;;16.90;85.80;;;;;;5014617;28;20456;-66
2022/04/14 09:16:24;;;;;;;4.93;3.33;;;16.90;85.80;;;;;;5014120;28;20492;-66
2022/04/14 09:18:54;;;;;;;3.90;3.60;;;16.90;85.80;;;;;;5014667;28;20441;-67
2022/04/14 09:21:23;;;;;;;3.60;3.30;;;16.90;85.90;;;;;;5014200;28;21037;-65
2022/04/14 09:23:52;;;;;;;4.50;4.00;;;16.90;85.70;;;;;;5014537;28;20476;-66
2022/04/14 09:26:24;;;;;;;4.00;3.40;;;16.90;85.70;;;;;;5013727;28;20468;-67
2022/04/14 09:29:04;;;;;;;3.43;3.13;;;16.90;85.70;;;;;;5014987;28;20464;-67
2022/04/14 09:31:47;;;;;;;4.70;3.87;;;16.90;85.70;;;;;;5013954;28;20994;-66
2022/04/14 09:34:18;;;;;;;3.70;3.40;;;16.90;85.70;;;;;;5013895;28;20963;-67
2022/04/14 09:37:06;;;;;;;3.70;3.37;;;16.90;85.70;;;;;;5028825;28;20482;-67
2022/04/14 09:39:55;;;;;;;3.40;3.10;;;16.90;85.70;;;;;;5021254;28;20456;-65
2022/04/14 09:42:24;;;;;;;4.07;3.40;;;16.90;85.70;;;;;;5014273;28;20472;-67
2022/04/14 09:44:53;;;;;;;3.07;2.67;;;16.90;85.60;;;;;;5012305;28;20911;-65
2022/04/14 09:47:37;;;;;;;3.63;2.77;;;16.90;85.60;;;;;;5013939;28;20461;-67
2022/04/14 09:50:24;;;;;;;4.27;2.70;;;16.90;85.60;;;;;;5013740;28;20890;-67
2022/04/14 09:53:01;;;;;;;4.93;3.27;;;16.90;85.70;;;;;;5014070;28;20899;-67
2022/04/14 09:55:30;;;;;;;4.23;3.83;;;16.90;85.60;;;;;;5013591;28;20480;-67
2022/04/14 09:58:13;;;;;;;3.93;3.53;;;16.90;85.40;;;;;;5012866;28;20425;-68
2022/04/14 10:00:43;;;;;;;4.27;3.37;;;16.90;85.60;;;;;;5013550;28;20796;-67
2022/04/14 10:03:17;;;;;;;3.40;3.10;;;16.90;85.50;;;;;;5028211;28;20468;-65
2022/04/14 10:05:47;;;;;;;5.53;3.57;;;17.00;85.60;;;;;;5013292;28;20505;-66
2022/04/14 10:08:19;;;;;;;4.50;3.90;;;16.90;85.50;;;;;;5013992;28;20433;-68
2022/04/14 10:10:50;;;;;;;3.50;3.20;;;17.00;85.40;;;;;;5033061;28;20480;-68
2022/04/14 10:13:18;;;;;;;4.27;3.13;;;17.00;85.50;;;;;;5033461;28;20579;-67
2022/04/14 10:15:49;;;;;;;5.53;2.70;;;16.90;85.50;;;;;;5032860;28;20460;-66
2022/04/14 10:18:19;;;;;;;3.60;3.23;;;17.00;86.80;;;;;;5030910;28;20426;-67
2022/04/14 10:20:49;;;;;;;3.80;3.40;;;16.90;85.40;;;;;;5013162;28;20457;-66
2022/04/14 10:23:17;;;;;;;4.00;3.70;;;16.90;85.50;;;;;;5013410;28;21009;-67
2022/04/14 10:25:45;;;;;;;3.93;3.63;;;16.90;85.50;;;;;;5012941;28;20464;-67
2022/04/14 10:28:15;;;;;;;4.60;3.37;;;16.90;85.40;;;;;;5013397;28;20456;-67
2022/04/14 10:30:46;;;;;;;3.20;2.93;;;16.90;85.50;;;;;;5028621;28;20823;-66
2022/04/14 10:33:20;;;;;;;3.80;3.50;;;16.90;85.50;;;;;;5024888;28;20468;-66
2022/04/14 10:35:50;;;;;;;5.00;3.23;;;16.90;85.60;;;;;;5019451;28;20464;-67
2022/04/14 10:38:23;;;;;;;3.50;3.07;;;16.90;85.50;;;;;;5031215;28;20474;-67
2022/04/14 10:40:58;;;;;;;3.23;2.93;;;16.90;85.60;;;;;;5011660;28;20465;-66
2022/04/14 10:43:28;;;;;;;2.97;2.77;;;16.90;85.60;;;;;;5013041;28;20457;-67
2022/04/14 10:45:58;;;;;;;2.80;2.60;;;16.90;85.70;;;;;;5012233;28;20457;-65
2022/04/14 10:48:31;;;;;;;3.70;3.40;;;16.90;85.70;;;;;;5013267;28;20437;-67
2022/04/14 10:51:20;;;;;;;4.33;2.77;;;16.90;85.70;;;;;;5012627;28;20461;-68
2022/04/14 10:53:50;;;;;;;3.07;2.87;;;16.90;85.70;;;;;;5013063;28;20477;-67
2022/04/14 10:56:43;;;;;;;2.90;2.70;;;16.90;85.70;;;;;;5012484;28;20464;-66
2022/04/14 10:59:12;;;;;;;3.80;2.70;;;16.90;85.70;;;;;;5013039;28;20429;-68
2022/04/14 11:01:58;;;;;;;3.20;2.77;;;16.90;85.70;;;;;;5012543;28;20441;-67
2022/04/14 11:04:32;;;;;;;3.40;3.10;;;16.90;85.80;;;;;;5011885;28;21052;-67
2022/04/14 11:07:08;;;;;;;3.00;2.70;;;16.90;85.70;;;;;;5013041;28;20491;-66
2022/04/14 11:09:48;;;;;;;4.23;3.83;;;16.90;85.70;;;;;;5012137;28;20519;-65
2022/04/14 11:12:19;;;;;;;3.93;3.30;;;16.90;85.70;;;;;;5012582;28;20514;-67
2022/04/14 11:14:49;;;;;;;4.40;4.07;;;16.90;85.60;;;;;;5011893;28;20495;-67
2022/04/14 11:17:52;;;;;;;3.60;3.30;;;16.90;86.90;;;;;;5012832;28;20429;-67
2022/04/14 11:20:54;;;;;;;2.90;2.70;;;16.90;85.60;;;;;;5012162;28;20476;-65
2022/04/14 11:23:29;;;;;;;3.47;3.27;;;16.90;85.70;;;;;;5012543;28;20874;-65
2022/04/14 11:26:09;;;;;;;3.90;3.47;;;17.00;85.70;;;;;;5011944;28;20543;-65
2022/04/14 11:28:40;;;;;;;3.80;3.10;;;16.90;85.70;;;;;;5012596;28;20433;-65
2022/04/14 11:31:26;;;;;;;3.67;2.67;;;17.00;85.80;;;;;;5011765;28;20457;-65
2022/04/14 11:33:57;;;;;;;4.23;3.87;;;17.00;85.80;;;;;;5020021;28;20842;-65
2022/04/14 11:36:39;;;;;;;4.83;4.43;;;16.90;85.60;;;;;;5041465;28;20566;-65
2022/04/14 11:39:20;;;;;;;4.70;4.30;;;17.00;84.90;;;;;;5029847;28;20884;-65
2022/04/14 11:41:50;;;;;;;4.90;4.17;;;17.00;84.90;;;;;;5038643;28;20444;-65
2022/04/14 11:44:20;;;;;;;5.10;4.60;;;17.00;84.90;;;;;;5033066;28;20479;-65
2022/04/14 11:46:50;;;;;;;5.27;4.80;;;17.00;85.10;;;;;;5025472;28;20441;-66
2022/04/14 11:49:19;;;;;;;4.60;4.20;;;17.00;85.10;;;;;;5016219;28;20443;-66
2022/04/14 11:51:48;;;;;;;4.50;4.10;;;17.00;85.00;;;;;;5029564;28;20507;-65
2022/04/14 11:54:35;;;;;;;5.47;4.97;;;17.00;84.90;;;;;;5038922;28;20455;-65
2022/04/14 11:57:09;;;;;;;28.23;23.60;;;17.10;84.80;;;;;;5032094;28;20432;-65
2022/04/14 11:59:39;;;;;;;22.67;20.07;;;17.00;84.40;;;;;;5037354;28;20458;-66
2022/04/14 12:02:09;;;;;;;20.93;18.90;;;17.10;84.30;;;;;;5039881;28;20448;-66
2022/04/14 12:04:38;;;;;;;18.03;16.07;;;17.10;84.20;;;;;;5030422;28;20466;-66
2022/04/14 12:07:08;;;;;;;16.50;14.70;;;17.20;83.50;;;;;;5031967;28;20938;-66
2022/04/14 12:09:38;;;;;;;17.13;13.53;;;17.20;83.50;;;;;;5034535;28;20981;-66
2022/04/14 12:12:11;;;;;;;15.57;13.87;;;17.20;83.60;;;;;;5042804;28;20502;-66
2022/04/14 12:14:42;;;;;;;17.70;14.33;;;17.20;83.70;;;;;;5030963;28;21008;-66
2022/04/14 12:17:10;;;;;;;14.77;12.33;;;17.20;83.70;;;;;;5022037;28;20520;-66
2022/04/14 12:19:44;;;;;;;13.13;11.93;;;17.20;84.00;;;;;;5029453;28;20496;-66
2022/04/14 12:22:13;;;;;;;12.63;11.33;;;17.10;84.00;;;;;;5031873;28;20925;-66
2022/04/14 12:24:48;;;;;;;11.70;10.50;;;17.10;84.20;;;;;;5018294;28;20465;-65
2022/04/14 12:27:22;;;;;;;11.00;10.00;;;17.20;84.30;;;;;;5015470;28;20856;-66
2022/04/14 12:29:53;;;;;;;10.67;9.63;;;17.10;84.30;;;;;;5033625;28;20563;-66
2022/04/14 12:32:25;;;;;;;10.30;9.27;;;17.20;84.60;;;;;;5026996;28;20504;-66
2022/04/14 12:34:53;;;;;;;10.27;9.37;;;17.20;84.60;;;;;;5046767;28;20463;-66
2022/04/14 12:37:22;;;;;;;10.03;8.97;;;17.10;84.60;;;;;;5053907;28;20438;-65
2022/04/14 12:40:00;;;;;;;11.23;10.13;;;17.10;84.70;;;;;;5020177;28;20519;-65
2022/04/14 12:42:31;;;;;;;9.50;8.50;;;17.20;84.80;;;;;;5035239;28;20485;-66
2022/04/14 12:45:04;;;;;;;9.77;8.30;;;17.10;84.70;;;;;;5043259;28;21015;-66
2022/04/14 12:47:33;;;;;;;9.40;8.20;;;17.10;84.70;;;;;;5034768;28;20944;-67
2022/04/14 12:50:01;;;;;;;8.50;7.60;;;17.20;84.90;;;;;;5015154;28;20465;-67
2022/04/14 12:52:30;;;;;;;8.47;7.70;;;17.20;84.90;;;;;;5052550;28;20451;-66
2022/04/14 12:54:59;;;;;;;7.57;6.97;;;17.20;84.90;;;;;;5023708;28;20460;-68
2022/04/14 12:57:30;;;;;;;8.37;7.50;;;17.10;84.90;;;;;;5050554;28;20439;-67
2022/04/14 13:00:05;;;;;;;7.90;7.20;;;17.20;85.00;;;;;;5052255;28;20459;-68